createdAt,value
2018-02-27T00:01:41.795Z,94310.13
2018-02-27T00:04:09.293Z,94295.55
2018-02-27T00:06:36.836Z,94296.62
2018-02-27T00:09:04.383Z,94301.65
2018-02-27T00:11:31.901Z,94295.00
2018-02-27T00:13:59.410Z,94288.77
2018-02-27T00:16:26.969Z,94292.21
2018-02-27T00:18:54.500Z,94291.32
2018-02-27T00:21:22.021Z,94291.80
2018-02-27T00:23:49.541Z,94291.72
2018-02-27T00:26:17.046Z,94301.63
2018-02-27T00:28:44.561Z,94287.00
2018-02-27T00:31:12.116Z,94283.47
2018-02-27T00:33:39.647Z,94274.16
2018-02-27T00:36:07.162Z,94290.66
2018-02-27T00:38:34.717Z,94272.17
2018-02-27T00:41:02.245Z,94263.66
2018-02-27T00:43:29.769Z,94266.70
2018-02-27T00:45:57.316Z,94265.28
2018-02-27T00:48:24.827Z,94280.87
2018-02-27T00:50:52.352Z,94265.92
2018-02-27T00:53:19.908Z,94265.32
2018-02-27T00:55:47.436Z,94255.47
2018-02-27T00:58:14.945Z,94251.23
2018-02-27T01:00:42.519Z,94261.39
2018-02-27T01:03:10.139Z,94263.38
2018-02-27T01:05:37.662Z,94263.77
2018-02-27T01:08:05.222Z,94246.37
2018-02-27T01:10:32.794Z,94243.31
2018-02-27T01:13:00.317Z,94236.27
2018-02-27T01:15:27.873Z,94255.28
2018-02-27T01:17:55.398Z,94277.36
2018-02-27T01:20:22.906Z,94236.58
2018-02-27T01:22:50.425Z,94235.97
2018-02-27T01:25:17.960Z,94231.64
2018-02-27T01:27:45.469Z,94220.21
2018-02-27T01:30:13.077Z,94219.95
2018-02-27T01:32:40.608Z,94221.95
2018-02-27T01:35:08.149Z,94217.41
2018-02-27T01:37:35.700Z,94217.76
2018-02-27T01:40:03.212Z,94204.70
2018-02-27T01:42:30.737Z,94206.83
2018-02-27T01:44:58.272Z,94203.89
2018-02-27T01:47:25.786Z,94220.59
2018-02-27T01:49:53.314Z,94218.28
2018-02-27T01:52:20.876Z,94205.14
2018-02-27T01:54:48.433Z,94203.89
2018-02-27T01:57:15.937Z,94208.73
2018-02-27T01:59:43.485Z,94198.18
2018-02-27T02:02:11.074Z,94207.09
2018-02-27T02:04:38.660Z,94201.31
2018-02-27T02:07:06.183Z,94190.88
2018-02-27T02:09:33.745Z,94209.83
2018-02-27T02:12:01.268Z,94208.97
2018-02-27T02:14:28.786Z,94205.95
2018-02-27T02:16:56.338Z,94203.05
2018-02-27T02:19:23.869Z,94208.37
2018-02-27T02:21:51.757Z,94207.58
2018-02-27T02:24:19.311Z,94208.02
2018-02-27T02:26:46.854Z,94213.92
2018-02-27T02:29:14.384Z,94215.86
2018-02-27T02:31:41.923Z,94227.70
2018-02-27T02:34:09.451Z,94229.79
2018-02-27T02:36:36.967Z,94234.09
2018-02-27T02:39:04.526Z,94238.73
2018-02-27T02:41:32.044Z,94240.28
2018-02-27T02:43:59.551Z,94229.79
2018-02-27T02:46:27.090Z,94228.11
2018-02-27T02:48:54.661Z,94233.91
2018-02-27T02:51:22.203Z,94241.34
2018-02-27T02:53:49.726Z,94236.50
2018-02-27T02:56:17.252Z,94236.91
2018-02-27T02:58:44.782Z,94237.78
2018-02-27T03:01:12.319Z,94235.78
2018-02-27T03:03:39.838Z,94225.60
2018-02-27T03:06:07.364Z,94231.39
2018-02-27T03:08:34.898Z,94237.88
2018-02-27T03:11:02.432Z,94235.94
2018-02-27T03:13:29.967Z,94229.55
2018-02-27T03:15:57.510Z,94219.59
2018-02-27T03:18:25.017Z,94216.71
2018-02-27T03:20:52.548Z,94216.17
2018-02-27T03:23:20.090Z,94203.95
2018-02-27T03:25:47.602Z,94204.83
2018-02-27T03:28:15.169Z,94214.38
2018-02-27T03:30:42.746Z,94205.86
2018-02-27T03:33:10.249Z,94205.28
2018-02-27T03:35:37.755Z,94195.11
2018-02-27T03:38:05.294Z,94188.23
2018-02-27T03:40:33.554Z,94192.70
2018-02-27T03:43:01.119Z,94186.43
2018-02-27T03:45:28.676Z,94194.81
2018-02-27T03:50:44.019Z,94202.13
2018-02-27T03:53:12.123Z,94187.50
2018-02-27T03:55:39.638Z,94178.66
2018-02-27T03:58:07.170Z,94165.13
2018-02-27T04:00:36.166Z,94183.56
2018-02-27T04:03:03.724Z,94192.16
2018-02-27T04:05:31.265Z,94195.20
2018-02-27T04:07:58.819Z,94193.16
2018-02-27T04:10:26.361Z,94197.79
2018-02-27T04:12:53.889Z,94207.39
2018-02-27T04:15:21.426Z,94208.11
2018-02-27T04:17:48.945Z,94219.36
2018-02-27T04:20:16.458Z,94214.20
2018-02-27T04:22:44.005Z,94214.27
2018-02-27T04:25:11.505Z,94218.48
2018-02-27T04:27:39.029Z,94202.30
2018-02-27T04:30:06.693Z,94197.73
2018-02-27T04:32:34.214Z,94198.06
2018-02-27T04:35:01.736Z,94203.00
2018-02-27T04:37:29.273Z,94212.38
2018-02-27T04:39:56.790Z,94203.46
2018-02-27T04:42:24.297Z,94206.30
2018-02-27T04:44:51.839Z,94204.97
2018-02-27T04:47:19.365Z,94198.33
2018-02-27T04:49:46.889Z,94203.17
2018-02-27T04:52:14.428Z,94210.84
2018-02-27T04:54:42.064Z,94215.77
2018-02-27T04:57:09.584Z,94235.64
2018-02-27T04:59:37.114Z,94229.45
2018-02-27T05:02:04.676Z,94240.36
2018-02-27T05:04:32.199Z,94248.67
2018-02-27T05:06:59.988Z,94258.06
2018-02-27T05:09:27.532Z,94256.50
2018-02-27T05:11:55.082Z,94246.66
2018-02-27T05:14:22.601Z,94251.72
2018-02-27T05:16:50.158Z,94252.13
2018-02-27T05:19:17.681Z,94241.91
2018-02-27T05:21:45.211Z,94249.66
2018-02-27T05:24:13.260Z,94251.12
2018-02-27T05:26:40.788Z,94264.91
2018-02-27T05:29:08.301Z,94256.67
2018-02-27T05:31:35.854Z,94257.31
2018-02-27T05:34:03.371Z,94261.37
2018-02-27T05:36:30.903Z,94251.52
2018-02-27T05:38:58.501Z,94259.03
2018-02-27T05:41:26.340Z,94252.20
2018-02-27T05:43:53.886Z,94263.25
2018-02-27T05:46:21.425Z,94262.89
2018-02-27T05:48:48.948Z,94252.70
2018-02-27T05:51:16.470Z,94242.73
2018-02-27T05:53:44.013Z,94257.83
2018-02-27T05:56:11.539Z,94267.86
2018-02-27T05:58:39.053Z,94270.06
2018-02-27T06:01:06.585Z,94268.28
2018-02-27T06:03:34.110Z,94278.16
2018-02-27T06:06:01.649Z,94283.73
2018-02-27T06:08:29.223Z,94303.80
2018-02-27T06:10:56.955Z,94290.41
2018-02-27T06:13:24.463Z,94292.97
2018-02-27T06:15:52.034Z,94289.61
2018-02-27T06:18:19.536Z,94297.93
2018-02-27T06:20:47.062Z,94292.03
2018-02-27T06:23:14.602Z,94289.28
2018-02-27T06:25:42.118Z,94290.94
2018-02-27T06:28:09.648Z,94300.20
2018-02-27T06:30:37.231Z,94294.39
2018-02-27T06:33:04.776Z,94292.34
2018-02-27T06:35:32.292Z,94304.84
2018-02-27T06:37:59.840Z,94301.45
2018-02-27T06:40:27.350Z,94303.18
2018-02-27T06:42:55.013Z,94301.38
2018-02-27T06:45:22.548Z,94313.63
2018-02-27T06:47:50.101Z,94319.82
2018-02-27T06:50:17.625Z,94316.22
2018-02-27T06:52:45.297Z,94318.02
2018-02-27T06:55:12.815Z,94319.42
2018-02-27T06:57:40.366Z,94323.42
2018-02-27T07:00:07.910Z,94324.46
2018-02-27T07:02:35.443Z,94331.52
2018-02-27T07:05:02.958Z,94325.06
2018-02-27T07:07:30.517Z,94338.89
2018-02-27T07:09:58.045Z,94340.00
2018-02-27T07:12:25.552Z,94335.44
2018-02-27T07:14:53.076Z,94331.57
2018-02-27T07:17:20.608Z,94333.31
2018-02-27T07:19:48.116Z,94337.36
2018-02-27T07:22:15.683Z,94346.70
2018-02-27T07:24:43.246Z,94342.53
2018-02-27T07:27:10.770Z,94331.20
2018-02-27T07:29:38.310Z,94330.08
2018-02-27T07:32:05.844Z,94320.53
2018-02-27T07:34:33.352Z,94324.13
2018-02-27T07:37:00.866Z,94320.73
2018-02-27T07:39:28.421Z,94315.40
2018-02-27T07:41:55.924Z,94324.22
2018-02-27T07:44:23.433Z,94326.67
2018-02-27T07:46:50.958Z,94326.34
2018-02-27T07:49:18.492Z,94323.04
2018-02-27T07:51:46.023Z,94335.63
2018-02-27T07:54:13.556Z,94330.33
2018-02-27T07:56:41.163Z,94338.95
2018-02-27T07:59:08.686Z,94341.71
2018-02-27T08:01:36.226Z,94333.88
2018-02-27T08:04:03.818Z,94340.55
2018-02-27T08:06:31.335Z,94340.30
2018-02-27T08:08:58.864Z,94349.28
2018-02-27T08:11:26.439Z,94346.70
2018-02-27T08:13:53.972Z,94350.57
2018-02-27T08:16:21.514Z,94345.44
2018-02-27T08:18:49.049Z,94361.16
2018-02-27T08:21:16.586Z,94369.10
2018-02-27T08:23:44.123Z,94372.26
2018-02-27T08:26:11.637Z,94337.39
2018-02-27T08:28:39.224Z,94386.88
2018-02-27T08:31:06.737Z,94385.04
2018-02-27T08:33:34.249Z,94370.65
2018-02-27T08:36:01.777Z,94375.84
2018-02-27T08:38:29.351Z,94372.63
2018-02-27T08:40:56.864Z,94385.98
2018-02-27T08:43:24.444Z,94389.84
2018-02-27T08:45:51.993Z,94381.50
2018-02-27T08:48:19.506Z,94390.87
2018-02-27T08:50:47.026Z,94388.79
2018-02-27T08:53:14.569Z,94382.72
2018-02-27T08:55:42.113Z,94373.81
2018-02-27T08:58:09.630Z,94377.50
2018-02-27T09:00:37.184Z,94383.62
2018-02-27T09:03:04.725Z,94389.00
2018-02-27T09:05:32.414Z,94400.75
2018-02-27T09:07:59.980Z,94403.32
2018-02-27T09:10:27.511Z,94403.07
2018-02-27T09:12:55.027Z,94411.25
2018-02-27T09:15:22.573Z,94411.73
2018-02-27T09:17:50.116Z,94411.98
2018-02-27T09:20:17.655Z,94409.70
2018-02-27T09:22:45.242Z,94412.57
2018-02-27T09:25:12.789Z,94408.88
2018-02-27T09:27:40.324Z,94417.25
2018-02-27T09:30:08.020Z,94411.91
2018-02-27T09:32:35.542Z,94411.79
2018-02-27T09:35:03.113Z,94408.78
2018-02-27T09:37:30.709Z,94420.47
2018-02-27T09:39:58.210Z,94420.20
2018-02-27T09:42:25.740Z,94415.61
2018-02-27T09:44:53.533Z,94414.85
2018-02-27T09:47:21.076Z,94413.41
2018-02-27T09:49:48.617Z,94417.81
2018-02-27T09:52:16.208Z,94403.22
2018-02-27T09:54:43.720Z,94399.91
2018-02-27T09:57:11.241Z,94394.72
2018-02-27T09:59:38.793Z,94392.73
2018-02-27T10:02:06.449Z,94406.45
2018-02-27T10:04:33.973Z,94404.58
2018-02-27T10:07:01.504Z,94408.10
2018-02-27T10:09:29.056Z,94409.32
2018-02-27T10:11:56.586Z,94407.81
2018-02-27T10:14:24.108Z,94403.75
2018-02-27T10:16:51.672Z,94403.81
2018-02-27T10:19:19.238Z,94387.12
2018-02-27T10:21:46.787Z,94400.48
2018-02-27T10:24:14.353Z,94400.69
2018-02-27T10:26:41.883Z,94392.78
2018-02-27T10:29:09.417Z,94382.04
2018-02-27T10:31:37.004Z,94374.83
2018-02-27T10:34:04.641Z,94366.38
2018-02-27T10:36:32.169Z,94372.78
2018-02-27T10:38:59.741Z,94365.61
2018-02-27T10:41:27.271Z,94365.71
2018-02-27T10:43:54.802Z,94359.89
2018-02-27T10:46:22.389Z,94369.10
2018-02-27T10:48:49.909Z,94355.75
2018-02-27T10:51:17.460Z,94337.10
2018-02-27T10:53:45.005Z,94347.91
2018-02-27T10:56:12.527Z,94356.46
2018-02-27T10:58:40.037Z,94386.68
2018-02-27T11:01:24.085Z,94397.35
2018-02-27T11:03:51.631Z,94402.34
2018-02-27T11:06:19.151Z,94396.77
2018-02-27T11:08:46.700Z,94401.95
2018-02-27T11:11:14.521Z,94394.48
2018-02-27T11:13:42.049Z,94388.09
2018-02-27T11:16:09.586Z,94382.88
2018-02-27T11:18:37.124Z,94378.00
2018-02-27T11:21:04.645Z,94381.39
2018-02-27T11:23:32.186Z,94375.27
2018-02-27T11:25:59.688Z,94381.81
2018-02-27T11:28:27.198Z,94377.02
2018-02-27T11:30:54.768Z,94383.61
2018-02-27T11:33:22.291Z,94378.52
2018-02-27T11:35:49.805Z,94380.37
2018-02-27T11:38:17.351Z,94381.84
2018-02-27T11:40:44.886Z,94381.25
2018-02-27T11:43:12.415Z,94390.97
2018-02-27T11:45:39.981Z,94397.30
2018-02-27T11:48:07.512Z,94393.80
2018-02-27T11:50:35.049Z,94397.50
2018-02-27T11:53:02.637Z,94392.22
2018-02-27T11:55:30.741Z,94379.03
2018-02-27T11:57:58.265Z,94374.63
2018-02-27T12:00:25.819Z,94375.47
2018-02-27T12:02:53.330Z,94380.52
2018-02-27T12:05:20.984Z,94365.95
2018-02-27T12:07:48.624Z,94355.70
2018-02-27T12:10:16.218Z,94376.97
2018-02-27T12:12:43.750Z,94374.61
2018-02-27T12:15:11.312Z,94367.58
2018-02-27T12:17:38.880Z,94377.91
2018-02-27T12:20:06.579Z,94384.16
2018-02-27T12:22:34.180Z,94388.31
2018-02-27T12:25:01.761Z,94388.50
2018-02-27T12:27:29.313Z,94380.77
2018-02-27T12:29:56.907Z,94376.37
2018-02-27T12:32:24.441Z,94366.83
2018-02-27T12:34:51.986Z,94369.98
2018-02-27T12:37:19.496Z,94374.62
2018-02-27T12:39:47.037Z,94375.61
2018-02-27T12:42:14.556Z,94362.39
2018-02-27T12:44:42.334Z,94369.80
2018-02-27T12:47:09.952Z,94358.70
2018-02-27T12:49:37.493Z,94362.21
2018-02-27T12:52:05.025Z,94354.44
2018-02-27T12:54:32.792Z,94413.30
2018-02-27T12:57:00.788Z,94358.89
2018-02-27T12:59:28.576Z,94347.45
2018-02-27T13:01:56.145Z,94352.28
2018-02-27T13:04:23.791Z,94349.39
2018-02-27T13:06:51.334Z,94342.40
2018-02-27T13:09:18.996Z,94343.38
2018-02-27T13:11:46.986Z,94340.25
2018-02-27T13:14:15.125Z,94341.81
2018-02-27T13:16:42.718Z,94331.13
2018-02-27T13:19:10.255Z,94334.22
2018-02-27T13:21:37.866Z,94331.52
2018-02-27T13:24:07.043Z,94336.95
2018-02-27T13:26:34.622Z,94319.81
2018-02-27T13:29:02.188Z,94331.81
2018-02-27T13:31:29.825Z,94332.94
2018-02-27T13:33:57.358Z,94333.09
2018-02-27T13:36:24.915Z,94331.12
2018-02-27T13:38:52.480Z,94330.86
2018-02-27T13:41:19.988Z,94323.83
2018-02-27T13:43:47.509Z,94315.94
2018-02-27T13:46:15.037Z,94310.67
2018-02-27T13:48:45.911Z,94305.86
2018-02-27T13:51:10.106Z,94299.71
2018-02-27T13:53:37.654Z,94287.39
2018-02-27T13:56:05.176Z,94290.33
2018-02-27T13:58:32.741Z,94302.55
2018-02-27T14:01:00.355Z,94319.34
2018-02-27T14:03:27.899Z,94329.55
2018-02-27T14:05:55.507Z,94336.67
2018-02-27T14:08:23.161Z,94347.70
2018-02-27T14:10:50.705Z,94352.48
2018-02-27T14:13:18.237Z,94357.09
2018-02-27T14:15:45.821Z,94345.63
2018-02-27T14:18:13.345Z,94342.75
2018-02-27T14:20:40.861Z,94350.66
2018-02-27T14:23:08.431Z,94346.36
2018-02-27T14:25:35.977Z,94335.19
2018-02-27T14:28:03.515Z,94341.52
2018-02-27T14:30:31.058Z,94335.47
2018-02-27T14:32:58.575Z,94334.37
2018-02-27T14:35:26.095Z,94341.52
2018-02-27T14:37:53.653Z,94336.13
2018-02-27T14:40:21.193Z,94342.28
2018-02-27T14:42:49.628Z,94344.63
2018-02-27T14:45:18.134Z,94342.97
2018-02-27T14:47:45.656Z,94333.53
2018-02-27T14:50:13.165Z,94340.33
2018-02-27T14:52:41.099Z,94338.53
2018-02-27T14:55:08.878Z,94338.11
2018-02-27T14:57:36.683Z,94338.91
2018-02-27T15:00:08.024Z,94334.48
2018-02-27T15:02:35.534Z,94329.45
2018-02-27T15:05:03.153Z,94320.88
2018-02-27T15:07:31.449Z,94310.81
2018-02-27T15:09:58.986Z,94334.75
2018-02-27T15:12:27.533Z,94332.43
2018-02-27T15:14:55.125Z,94337.55
2018-02-27T15:17:24.164Z,94322.44
2018-02-27T15:19:51.681Z,94317.64
2018-02-27T15:22:19.384Z,94324.25
2018-02-27T15:24:46.928Z,94316.09
2018-02-27T15:27:14.473Z,94314.41
2018-02-27T15:29:42.018Z,94305.80
2018-02-27T15:32:09.580Z,94291.38
2018-02-27T15:34:37.113Z,94309.49
2018-02-27T15:37:04.656Z,94317.44
2018-02-27T15:39:32.667Z,94316.80
2018-02-27T15:42:00.206Z,94312.87
2018-02-27T15:44:27.901Z,94307.55
2018-02-27T15:46:55.489Z,94311.88
2018-02-27T15:49:23.280Z,94315.05
2018-02-27T15:51:50.794Z,94327.66
2018-02-27T15:54:18.345Z,94332.64
2018-02-27T15:56:45.883Z,94330.47
2018-02-27T15:59:13.438Z,94333.50
2018-02-27T16:01:40.995Z,94327.27
2018-02-27T16:04:08.533Z,94327.05
2018-02-27T16:06:36.128Z,94309.11
2018-02-27T16:09:03.716Z,94309.06
2018-02-27T16:11:31.249Z,94306.67
2018-02-27T16:13:59.426Z,94296.51
2018-02-27T16:16:33.477Z,94279.20
2018-02-27T16:19:01.086Z,94300.33
2018-02-27T16:21:28.677Z,94296.38
2018-02-27T16:23:56.258Z,94296.98
2018-02-27T16:26:23.951Z,94291.72
2018-02-27T16:28:51.521Z,94287.58
2018-02-27T16:31:19.094Z,94292.48
2018-02-27T16:33:46.652Z,94279.88
2018-02-27T16:36:14.193Z,94293.20
2018-02-27T16:38:42.189Z,94299.67
2018-02-27T16:41:09.847Z,94293.86
2018-02-27T16:43:37.393Z,94296.65
2018-02-27T16:46:06.014Z,94295.67
2018-02-27T16:48:33.581Z,94303.55
2018-02-27T16:51:01.215Z,94273.05
2018-02-27T16:53:28.799Z,94292.91
2018-02-27T16:55:56.341Z,94277.38
2018-02-27T16:58:23.871Z,94282.98
2018-02-27T17:00:51.412Z,94273.86
2018-02-27T17:03:18.981Z,94292.27
2018-02-27T17:05:46.524Z,94266.09
2018-02-27T17:08:14.978Z,94275.06
2018-02-27T17:10:42.501Z,94291.18
2018-02-27T17:13:10.026Z,94298.17
2018-02-27T17:15:37.589Z,94291.13
2018-02-27T17:18:05.270Z,94288.16
2018-02-27T17:20:32.862Z,94292.13
2018-02-27T17:23:00.701Z,94307.69
2018-02-27T17:25:28.217Z,94291.03
2018-02-27T17:27:55.790Z,94287.27
2018-02-27T17:30:23.385Z,94279.87
2018-02-27T17:32:50.926Z,94284.78
2018-02-27T17:35:18.458Z,94277.77
2018-02-27T17:37:46.070Z,94271.73
2018-02-27T17:40:13.654Z,94282.66
2018-02-27T17:42:41.169Z,94322.27
2018-02-27T17:45:08.714Z,94280.74
2018-02-27T17:47:36.325Z,94302.61
2018-02-27T17:50:03.873Z,94290.03
2018-02-27T17:52:31.433Z,94295.95
2018-02-27T17:54:59.862Z,94345.63
2018-02-27T17:57:27.428Z,94311.14
2018-02-27T17:59:54.992Z,94319.60
2018-02-27T18:02:23.446Z,94303.86
2018-02-27T18:04:51.003Z,94318.78
2018-02-27T18:07:18.589Z,94342.44
2018-02-27T18:09:46.255Z,94349.86
2018-02-27T18:12:13.789Z,94347.53
2018-02-27T18:14:41.565Z,94365.25
2018-02-27T18:17:09.586Z,94365.62
2018-02-27T18:19:37.117Z,94371.91
2018-02-27T18:22:05.117Z,94350.42
2018-02-27T18:24:32.746Z,94386.28
2018-02-27T18:27:00.318Z,94383.64
2018-02-27T18:29:27.874Z,94397.84
2018-02-27T18:31:56.269Z,94389.98
2018-02-27T18:34:23.974Z,94391.68
2018-02-27T18:36:52.283Z,94381.09
2018-02-27T18:39:20.756Z,94383.86
2018-02-27T18:41:48.346Z,94370.27
2018-02-27T18:44:15.986Z,94379.39
2018-02-27T18:46:43.537Z,94394.98
2018-02-27T18:49:11.109Z,94400.19
2018-02-27T18:51:38.690Z,94417.31
2018-02-27T18:54:06.231Z,94388.53
2018-02-27T18:56:33.807Z,94388.77
2018-02-27T18:59:01.390Z,94396.50
2018-02-27T19:01:29.087Z,94387.61
2018-02-27T19:03:56.662Z,94398.61
2018-02-27T19:06:24.218Z,94386.30
2018-02-27T19:08:52.034Z,94380.33
2018-02-27T19:11:19.672Z,94404.11
2018-02-27T19:13:47.242Z,94375.64
2018-02-27T19:16:14.833Z,94399.17
2018-02-27T19:18:42.450Z,94387.56
2018-02-27T19:21:09.984Z,94393.20
2018-02-27T19:23:37.562Z,94418.53
2018-02-27T19:26:05.147Z,94380.32
2018-02-27T19:28:33.253Z,94386.69
2018-02-27T19:31:00.809Z,94375.39
2018-02-27T19:33:28.413Z,94389.36
2018-02-27T19:35:56.111Z,94383.41
2018-02-27T19:38:23.696Z,94385.14
2018-02-27T19:40:51.249Z,94411.97
2018-02-27T19:43:18.805Z,94393.48
2018-02-27T19:45:46.377Z,94383.97
2018-02-27T19:48:13.961Z,94380.28
2018-02-27T19:50:42.499Z,94405.38
2018-02-27T19:53:10.106Z,94396.58
2018-02-27T19:55:37.711Z,94392.67
2018-02-27T19:58:05.648Z,94403.90
2018-02-27T20:00:34.218Z,94407.27
2018-02-27T20:03:02.640Z,94402.02
2018-02-27T20:05:30.174Z,94429.75
2018-02-27T20:07:58.392Z,94430.53
2018-02-27T20:10:25.971Z,94404.54
2018-02-27T20:12:53.560Z,94406.27
2018-02-27T20:15:21.167Z,94404.30
2018-02-27T20:17:54.206Z,94421.59
2018-02-27T20:20:21.906Z,94434.73
2018-02-27T20:22:54.998Z,94424.66
2018-02-27T20:25:22.573Z,94423.00
2018-02-27T20:27:50.129Z,94419.62
2018-02-27T20:30:17.704Z,94423.72
2018-02-27T20:32:46.066Z,94423.88
2018-02-27T20:35:13.607Z,94422.39
2018-02-27T20:37:41.186Z,94419.73
2018-02-27T20:40:08.746Z,94396.86
2018-02-27T20:42:36.295Z,94412.95
2018-02-27T20:45:03.854Z,94406.20
2018-02-27T20:47:31.407Z,94405.96
2018-02-27T20:49:58.941Z,94393.00
2018-02-27T20:52:26.526Z,94392.78
2018-02-27T20:54:54.111Z,94403.00
2018-02-27T20:57:21.667Z,94385.88
2018-02-27T20:59:49.243Z,94380.07
2018-02-27T21:02:16.844Z,94394.38
2018-02-27T21:04:44.423Z,94375.77
2018-02-27T21:07:12.031Z,94373.31
2018-02-27T21:09:39.595Z,94375.67
2018-02-27T21:12:07.160Z,94383.14
2018-02-27T21:14:34.719Z,94379.22
2018-02-27T21:17:02.339Z,94383.05
2018-02-27T21:19:29.912Z,94385.97
2018-02-27T21:21:57.490Z,94387.30
2018-02-27T21:24:25.195Z,94377.23
2018-02-27T21:26:52.762Z,94380.95
2018-02-27T21:29:20.327Z,94373.23
2018-02-27T21:31:47.910Z,94381.57
2018-02-27T21:34:15.450Z,94367.52
2018-02-27T21:36:42.996Z,94374.42
2018-02-27T21:39:10.579Z,94386.52
2018-02-27T21:41:38.897Z,94372.14
2018-02-27T21:44:06.470Z,94382.19
2018-02-27T21:46:34.081Z,94368.46
2018-02-27T21:49:01.793Z,94370.37
2018-02-27T21:51:29.376Z,94359.45
2018-02-27T21:53:57.262Z,94335.66
2018-02-27T21:56:24.826Z,94340.77
2018-02-27T21:58:52.376Z,94345.64
2018-02-27T22:01:20.073Z,94344.99
2018-02-27T22:03:47.611Z,94340.13
2018-02-27T22:06:15.178Z,94316.91
2018-02-27T22:08:42.783Z,94311.71
2018-02-27T22:11:10.330Z,94308.65
2018-02-27T22:13:37.842Z,94322.39
2018-02-27T22:16:05.453Z,94282.86
2018-02-27T22:18:32.999Z,94320.44
2018-02-27T22:21:00.561Z,94323.25
2018-02-27T22:23:28.154Z,94332.05
2018-02-27T22:25:55.711Z,94330.57
2018-02-27T22:28:23.296Z,94326.48
2018-02-27T22:30:51.188Z,94323.91
2018-02-27T22:33:18.746Z,94312.28
2018-02-27T22:35:46.291Z,94303.64
2018-02-27T22:38:13.866Z,94298.06
2018-02-27T22:40:41.393Z,94318.64
2018-02-27T22:43:09.002Z,94312.27
2018-02-27T22:45:36.615Z,94332.54
2018-02-27T22:48:04.164Z,94331.13
2018-02-27T22:50:31.719Z,94324.77
2018-02-27T22:52:59.336Z,94320.12
2018-02-27T22:55:26.855Z,94310.23
2018-02-27T22:57:54.488Z,94280.82
2018-02-27T23:00:33.802Z,94307.49
2018-02-27T23:03:01.332Z,94313.45
2018-02-27T23:05:28.917Z,94330.49
2018-02-27T23:07:56.516Z,94343.04
2018-02-27T23:10:24.072Z,94341.17
2018-02-27T23:12:51.614Z,94360.84
2018-02-27T23:15:19.250Z,94351.04
2018-02-27T23:17:46.763Z,94349.80
2018-02-27T23:20:14.387Z,94344.36
2018-02-27T23:22:42.057Z,94347.97
2018-02-27T23:25:21.791Z,94351.36
2018-02-27T23:27:52.735Z,94338.34
2018-02-27T23:30:20.690Z,94325.08
2018-02-27T23:32:49.993Z,94318.80
2018-02-27T23:35:25.708Z,94312.12
2018-02-27T23:37:53.291Z,94310.94
2018-02-27T23:40:20.819Z,94291.34
2018-02-27T23:42:48.366Z,94330.19
2018-02-27T23:45:15.928Z,94307.66
2018-02-27T23:47:43.820Z,94303.41
2018-02-27T23:50:11.395Z,94314.32
2018-02-27T23:52:39.042Z,94316.27
2018-02-27T23:55:06.687Z,94311.73
2018-02-27T23:57:34.317Z,94312.75
